Big Bear Station Historical Data
Daily Summary for October 14, 2017 Units:  English    Metric   Both
Next Day »
Daily Weekly Monthly Yearly Custom
  High: Low: Average:
Temperature: 70.0 °F 28.8 °F 44.9 °F
Dew Point: 29.3 °F 11.0 °F 18.4 °F
Humidity: 84% 11% 43%
Wind Speed: 5.3mph 0.0mph 1.2mph
Wind Gust: -999.0mph - -
Wind- - WSW
Pressure: 30.34 in 30.21 in -
Precipitation: 0.00 in    
Historical Graphs
 
 
Tabular Data for October 14, 2017
Time Temperature Dew Point Pressure Wind Wind Speed Wind Gust Humidity Rainfall Rate (Hourly)
00:10 36.3 °F 25.7 °F 30.21 in Calm   -999.0 mph 65% 0 in
00:25 36.1 °F 26.9 °F 30.21 in Calm   -999.0 mph 69% 0 in
00:41 36.3 °F 28.8 °F 30.21 in Calm   -999.0 mph 74% 0 in
00:56 35.8 °F 29.3 °F 30.21 in Calm   -999.0 mph 77% 0 in
01:11 35.1 °F 28.9 °F 30.21 in Calm   -999.0 mph 78% 0 in
01:26 34.9 °F 27.8 °F 30.21 in Calm   -999.0 mph 75% 0 in
01:41 34.3 °F 25.2 °F 30.21 in Calm   -999.0 mph 69% 0 in
01:57 34.0 °F 23.5 °F 30.21 in Calm   -999.0 mph 65% 0 in
02:12 33.8 °F 23.6 °F 30.21 in Calm   -999.0 mph 66% 0 in
02:27 33.1 °F 23.0 °F 30.21 in Calm   -999.0 mph 66% 0 in
02:42 32.9 °F 23.1 °F 30.21 in Calm   -999.0 mph 67% 0 in
02:57 32.2 °F 24.5 °F 30.21 in Calm   -999.0 mph 73% 0 in
03:13 32.4 °F 22.7 °F 30.21 in Calm   -999.0 mph 67% 0 in
03:28 32.2 °F 21.8 °F 30.21 in Calm   -999.0 mph 65% 0 in
03:43 31.5 °F 18.4 °F 30.21 in Calm   -999.0 mph 58% 0 in
03:58 31.3 °F 19.4 °F 30.21 in Calm   -999.0 mph 61% 0 in
04:13 30.7 °F 21.7 °F 30.21 in Calm   -999.0 mph 69% 0 in
04:29 31.1 °F 24.1 °F 30.21 in Calm   -999.0 mph 75% 0 in
04:44 30.7 °F 24.7 °F 30.21 in Calm   -999.0 mph 78% 0 in
04:59 30.4 °F 25.0 °F 30.22 in Calm   -999.0 mph 80% 0 in
05:14 29.8 °F 25.3 °F 30.22 in Calm   -999.0 mph 83% 0 in
05:30 30.0 °F 25.8 °F 30.22 in Calm   -999.0 mph 84% 0 in
05:45 29.7 °F 22.7 °F 30.23 in Calm   -999.0 mph 75% 0 in
06:00 29.3 °F 20.4 °F 30.23 in Calm   -999.0 mph 69% 0 in
06:15 29.3 °F 20.7 °F 30.23 in Calm   -999.0 mph 70% 0 in
06:30 28.8 °F 21.6 °F 30.24 in Calm   -999.0 mph 74% 0 in
06:46 29.1 °F 23.4 °F 30.24 in Calm   -999.0 mph 79% 0 in
07:01 28.8 °F 23.4 °F 30.24 in Calm   -999.0 mph 80% 0 in
07:16 29.1 °F 24.9 °F 30.24 in Calm   -999.0 mph 84% 0 in
07:31 28.8 °F 23.7 °F 30.24 in Calm   -999.0 mph 81% 0 in
07:46 29.3 °F 24.2 °F 30.25 in Calm   -999.0 mph 81% 0 in
08:02 29.1 °F 24.6 °F 30.25 in Calm   -999.0 mph 83% 0 in
08:17 30.6 °F 25.2 °F 30.26 in Calm   -999.0 mph 80% 0 in
08:32 32.7 °F 22.9 °F 30.26 in Calm   -999.0 mph 67% 0 in
08:47 32.4 °F 24.7 °F 30.27 in Calm   -999.0 mph 73% 0 in
09:02 33.8 °F 22.5 °F 30.27 in Calm   -999.0 mph 63% 0 in
09:18 36.5 °F 12.7 °F 30.28 in Calm   -999.0 mph 37% 0 in
09:33 38.8 °F 14.7 °F 30.28 in Calm   -999.0 mph 37% 0 in
09:48 41.5 °F 20.1 °F 30.28 in Calm   -999.0 mph 42% 0 in
10:03 47.5 °F 21.2 °F 30.28 in NE 1.7 mph -999.0 mph 35% 0 in
10:18 52.7 °F 17.8 °F 30.28 in NNW 4.7 mph -999.0 mph 25% 0 in
10:34 57.0 °F 19.5 °F 30.28 in WSW 4.2 mph -999.0 mph 23% 0 in
10:49 59.5 °F 19.5 °F 30.28 in WNW 4.2 mph -999.0 mph 21% 0 in
11:04 60.6 °F 18.1 °F 30.28 in North 3.7 mph -999.0 mph 19% 0 in
11:19 61.9 °F 19.2 °F 30.28 in NNW 4.7 mph -999.0 mph 19% 0 in
11:35 62.8 °F 19.9 °F 30.28 in WNW 2.7 mph -999.0 mph 19% 0 in
11:50 64.4 °F 17.2 °F 30.28 in WNW 4.2 mph -999.0 mph 16% 0 in
12:05 65.1 °F 16.3 °F 30.28 in WNW 2.2 mph -999.0 mph 15% 0 in
12:20 65.5 °F 13.3 °F 30.28 in West 4.7 mph -999.0 mph 13% 0 in
12:36 66.6 °F 14.2 °F 30.28 in WNW 5.3 mph -999.0 mph 13% 0 in
12:51 66.7 °F 14.3 °F 30.28 in WSW 5.3 mph -999.0 mph 13% 0 in
13:06 66.7 °F 14.3 °F 30.27 in NNE 5.3 mph -999.0 mph 13% 0 in
13:22 67.3 °F 14.7 °F 30.26 in West 5.3 mph -999.0 mph 13% 0 in
13:37 67.8 °F 13.3 °F 30.26 in North 4.2 mph -999.0 mph 12% 0 in
13:52 70.0 °F 13.0 °F 30.26 in North 3.7 mph -999.0 mph 11% 0 in
14:07 68.0 °F 11.5 °F 30.26 in North 3.2 mph -999.0 mph 11% 0 in
14:23 66.7 °F 12.4 °F 30.26 in WNW 4.7 mph -999.0 mph 12% 0 in
14:38 66.2 °F 13.9 °F 30.26 in North 2.7 mph -999.0 mph 13% 0 in
14:53 65.3 °F 14.8 °F 30.26 in East 2.2 mph -999.0 mph 14% 0 in
15:09 64.8 °F 16.0 °F 30.26 in Calm   -999.0 mph 15% 0 in
15:24 64.0 °F 16.9 °F 30.26 in WNW 2.7 mph -999.0 mph 16% 0 in
15:40 63.7 °F 18.0 °F 30.26 in SW 1.1 mph -999.0 mph 17% 0 in
15:55 63.0 °F 17.5 °F 30.26 in NW 4.2 mph -999.0 mph 17% 0 in
16:10 62.2 °F 16.8 °F 30.26 in SSW 1.7 mph -999.0 mph 17% 0 in
16:25 61.3 °F 17.4 °F 30.26 in NW 2.7 mph -999.0 mph 18% 0 in
16:41 60.3 °F 16.6 °F 30.27 in SW 2.2 mph -999.0 mph 18% 0 in
16:56 59.4 °F 18.3 °F 30.27 in NW 1.7 mph -999.0 mph 20% 0 in
17:11 58.3 °F 17.4 °F 30.27 in NNW 3.7 mph -999.0 mph 20% 0 in
17:26 57.4 °F 17.7 °F 30.28 in East 1.1 mph -999.0 mph 21% 0 in
17:41 56.1 °F 16.7 °F 30.28 in WNW 2.2 mph -999.0 mph 21% 0 in
17:57 55.0 °F 15.7 °F 30.28 in Calm   -999.0 mph 21% 0 in
18:12 53.4 °F 14.4 °F 30.28 in North 1.1 mph -999.0 mph 21% 0 in
18:28 51.8 °F 13.1 °F 30.29 in Calm   -999.0 mph 21% 0 in
18:43 50.0 °F 11.6 °F 30.29 in Calm   -999.0 mph 21% 0 in
18:58 48.2 °F 11.1 °F 30.29 in South 1.1 mph -999.0 mph 22% 0 in
19:13 46.9 °F 11.0 °F 30.29 in Calm   -999.0 mph 23% 0 in
19:28 45.5 °F 12.6 °F 30.30 in SSW 1.7 mph -999.0 mph 26% 0 in
19:44 44.4 °F 14.9 °F 30.31 in Calm   -999.0 mph 30% 0 in
19:59 43.3 °F 13.9 °F 30.31 in South 1.7 mph -999.0 mph 30% 0 in
20:14 42.3 °F 13.8 °F 30.31 in Calm   -999.0 mph 31% 0 in
20:29 41.9 °F 14.2 °F 30.32 in South 2.2 mph -999.0 mph 32% 0 in
20:45 41.4 °F 13.7 °F 30.33 in South 1.1 mph -999.0 mph 32% 0 in
21:00 41.0 °F 13.4 °F 30.32 in Calm   -999.0 mph 32% 0 in
21:15 40.1 °F 13.3 °F 30.33 in SSE 1.7 mph -999.0 mph 33% 0 in
21:30 39.9 °F 13.8 °F 30.33 in Calm   -999.0 mph 34% 0 in
21:45 39.0 °F 13.6 °F 30.33 in Calm   -999.0 mph 35% 0 in
22:01 38.5 °F 13.2 °F 30.33 in Calm   -999.0 mph 35% 0 in
22:16 37.9 °F 12.7 °F 30.33 in Calm   -999.0 mph 35% 0 in
22:31 37.4 °F 12.2 °F 30.33 in Calm   -999.0 mph 35% 0 in
22:46 36.9 °F 11.8 °F 30.33 in Calm   -999.0 mph 35% 0 in
23:01 36.7 °F 12.8 °F 30.33 in Calm   -999.0 mph 37% 0 in
23:17 36.1 °F 12.3 °F 30.33 in Calm   -999.0 mph 37% 0 in
23:32 36.1 °F 12.3 °F 30.34 in Calm   -999.0 mph 37% 0 in
23:47 35.6 °F 12.5 °F 30.33 in Calm   -999.0 mph 38% 0 in
Big Bear CA Weather